Airfield :
LOGIN :

Register | Disclaimer

   EN    FR    IT 

 










Legend :    VFR   Marginal VFR   IFR   Intensive IFR   Very Intensive IFR
Visi :
Ceiling :
>= 8 km
>= 3000ft
5 to 8 km
1000 to 3000 ft
1500m to 5 km
500 to 1000 ft
800 to 1500m
200 to 500 ft
< 800m
< 200 ft
Symbols :   Thunderstorms  Fog  Heavy snow  Heavy precipitations  Wind > 20 kt
SIGMETs :     Misc.  Thunderstorms  Icing  Turbulence  Mountain Waves  Volcanic Ashes






- Airport Elevation : 16 ft
- IATA code : EAS


LESO - San Sebastian Fuenterrabia

CURRENT METAR :
  • 021930Z VRB02KT CAVOK 10/05 Q1018

EXPIRED METARs :
  • 021900Z 29003KT 250V320 9999 FEW035 11/05 Q1018
  • 021830Z 29003KT 250V010 9999 FEW030 12/05 Q1017
  • 021800Z 32005KT 280V020 9999 FEW030 12/05 Q1017
  • 021730Z 31004KT 250V020 9999 FEW027 13/05 Q1017
  • 021700Z 32004KT 270V360 9999 FEW024 13/07 Q1016

TAF TAF LESO
Valid from the 02 at 18:00 until the 03 at 18:00 UTC


021700Z 0218/0318 32006KT 9999 SCT025 TX14/0313Z TN06/0302Z
TEMPO 0222/0310 26010KT
TEMPO 0310/0318 02010KT



MET'MAP, your aeronautical weather chart ! - Copyright ORBIFLY December 2007 - Disclaimer

ORBIFLY MET'MAP TEAM :

Programming & Development : Alexandra Zaïnal
Concept & original design : Baudouin d'Aumeries
Assistance for programming : Marc-Olivier Méhu
Technical & hardware support : Manuel Goepfert

Contact : metmap@orbifly.com




SOURCES & CREDITS :

   NOAA